sensor_id;sensor_type;location;lat;lon;timestamp;P1;durP1;ratioP1;P2;durP2;ratioP2
9884;SDS011;4981;50.966;4.842;2023-11-19T00:00:51;3.23;;;1.70;;
9884;SDS011;4981;50.966;4.842;2023-11-19T00:03:18;2.60;;;1.40;;
9884;SDS011;4981;50.966;4.842;2023-11-19T00:05:46;2.23;;;1.10;;
9884;SDS011;4981;50.966;4.842;2023-11-19T00:08:14;5.67;;;1.40;;
9884;SDS011;4981;50.966;4.842;2023-11-19T00:10:41;6.03;;;1.47;;
9884;SDS011;4981;50.966;4.842;2023-11-19T00:13:08;4.30;;;1.50;;
9884;SDS011;4981;50.966;4.842;2023-11-19T00:15:35;8.33;;;1.70;;
9884;SDS011;4981;50.966;4.842;2023-11-19T00:18:02;7.70;;;1.57;;
9884;SDS011;4981;50.966;4.842;2023-11-19T00:20:30;10.30;;;1.90;;
9884;SDS011;4981;50.966;4.842;2023-11-19T00:22:58;7.50;;;2.43;;
9884;SDS011;4981;50.966;4.842;2023-11-19T00:25:27;7.77;;;1.93;;
9884;SDS011;4981;50.966;4.842;2023-11-19T00:27:54;6.40;;;2.10;;
9884;SDS011;4981;50.966;4.842;2023-11-19T00:30:21;6.57;;;1.73;;
9884;SDS011;4981;50.966;4.842;2023-11-19T00:32:48;11.37;;;2.30;;
9884;SDS011;4981;50.966;4.842;2023-11-19T00:35:15;12.50;;;2.63;;
9884;SDS011;4981;50.966;4.842;2023-11-19T00:37:42;8.67;;;2.10;;
9884;SDS011;4981;50.966;4.842;2023-11-19T00:40:12;10.97;;;2.00;;
9884;SDS011;4981;50.966;4.842;2023-11-19T00:42:41;11.27;;;2.80;;
9884;SDS011;4981;50.966;4.842;2023-11-19T00:45:08;10.90;;;2.63;;
9884;SDS011;4981;50.966;4.842;2023-11-19T00:47:37;11.73;;;2.33;;
9884;SDS011;4981;50.966;4.842;2023-11-19T00:50:05;17.80;;;3.17;;
9884;SDS011;4981;50.966;4.842;2023-11-19T00:52:34;14.77;;;3.10;;
9884;SDS011;4981;50.966;4.842;2023-11-19T00:55:02;15.23;;;3.23;;
9884;SDS011;4981;50.966;4.842;2023-11-19T00:57:31;11.23;;;2.90;;
9884;SDS011;4981;50.966;4.842;2023-11-19T00:59:58;13.80;;;2.80;;
9884;SDS011;4981;50.966;4.842;2023-11-19T01:02:25;12.93;;;3.07;;
9884;SDS011;4981;50.966;4.842;2023-11-19T01:04:52;14.20;;;2.70;;
9884;SDS011;4981;50.966;4.842;2023-11-19T01:07:21;15.13;;;3.67;;
9884;SDS011;4981;50.966;4.842;2023-11-19T01:09:49;16.27;;;3.43;;
9884;SDS011;4981;50.966;4.842;2023-11-19T01:12:18;19.63;;;2.87;;
9884;SDS011;4981;50.966;4.842;2023-11-19T01:14:46;13.90;;;3.00;;
9884;SDS011;4981;50.966;4.842;2023-11-19T01:17:13;17.20;;;2.90;;
9884;SDS011;4981;50.966;4.842;2023-11-19T01:19:41;12.43;;;2.90;;
9884;SDS011;4981;50.966;4.842;2023-11-19T01:22:08;15.70;;;3.00;;
9884;SDS011;4981;50.966;4.842;2023-11-19T01:24:35;15.77;;;3.03;;
9884;SDS011;4981;50.966;4.842;2023-11-19T01:27:02;14.87;;;2.57;;
9884;SDS011;4981;50.966;4.842;2023-11-19T01:29:29;17.03;;;3.30;;
9884;SDS011;4981;50.966;4.842;2023-11-19T01:31:57;13.10;;;2.87;;
9884;SDS011;4981;50.966;4.842;2023-11-19T01:34:24;13.63;;;2.90;;
9884;SDS011;4981;50.966;4.842;2023-11-19T01:36:51;14.93;;;2.70;;
9884;SDS011;4981;50.966;4.842;2023-11-19T01:39:18;13.50;;;2.90;;
9884;SDS011;4981;50.966;4.842;2023-11-19T01:41:46;17.50;;;3.37;;
9884;SDS011;4981;50.966;4.842;2023-11-19T01:44:13;14.23;;;2.93;;
9884;SDS011;4981;50.966;4.842;2023-11-19T01:46:40;16.43;;;3.20;;
9884;SDS011;4981;50.966;4.842;2023-11-19T01:49:10;13.90;;;2.93;;
9884;SDS011;4981;50.966;4.842;2023-11-19T01:51:38;13.93;;;3.33;;
9884;SDS011;4981;50.966;4.842;2023-11-19T01:54:06;16.07;;;3.00;;
9884;SDS011;4981;50.966;4.842;2023-11-19T01:56:34;11.20;;;2.30;;
9884;SDS011;4981;50.966;4.842;2023-11-19T01:59:03;15.00;;;2.50;;
9884;SDS011;4981;50.966;4.842;2023-11-19T02:01:31;18.87;;;3.23;;
9884;SDS011;4981;50.966;4.842;2023-11-19T02:04:01;16.47;;;2.90;;
9884;SDS011;4981;50.966;4.842;2023-11-19T02:06:30;16.07;;;3.27;;
9884;SDS011;4981;50.966;4.842;2023-11-19T02:08:59;13.17;;;2.97;;
9884;SDS011;4981;50.966;4.842;2023-11-19T02:11:26;19.47;;;3.50;;
9884;SDS011;4981;50.966;4.842;2023-11-19T02:13:55;15.90;;;2.83;;
9884;SDS011;4981;50.966;4.842;2023-11-19T02:16:23;13.77;;;3.17;;
9884;SDS011;4981;50.966;4.842;2023-11-19T02:18:50;14.03;;;3.20;;
9884;SDS011;4981;50.966;4.842;2023-11-19T02:21:17;12.50;;;2.70;;
9884;SDS011;4981;50.966;4.842;2023-11-19T02:23:46;15.50;;;2.80;;
9884;SDS011;4981;50.966;4.842;2023-11-19T02:26:14;14.73;;;3.20;;
9884;SDS011;4981;50.966;4.842;2023-11-19T02:28:49;13.07;;;2.37;;
9884;SDS011;4981;50.966;4.842;2023-11-19T02:31:16;21.33;;;3.20;;
9884;SDS011;4981;50.966;4.842;2023-11-19T02:33:45;14.40;;;2.80;;
9884;SDS011;4981;50.966;4.842;2023-11-19T02:36:12;22.27;;;3.90;;
9884;SDS011;4981;50.966;4.842;2023-11-19T02:38:39;15.60;;;3.17;;
9884;SDS011;4981;50.966;4.842;2023-11-19T02:41:06;16.30;;;3.20;;
9884;SDS011;4981;50.966;4.842;2023-11-19T02:43:35;15.47;;;3.13;;
9884;SDS011;4981;50.966;4.842;2023-11-19T02:46:05;16.37;;;3.17;;
9884;SDS011;4981;50.966;4.842;2023-11-19T02:48:33;20.93;;;3.27;;
9884;SDS011;4981;50.966;4.842;2023-11-19T02:51:01;23.50;;;4.13;;
9884;SDS011;4981;50.966;4.842;2023-11-19T02:53:34;17.00;;;3.83;;
9884;SDS011;4981;50.966;4.842;2023-11-19T02:56:02;23.07;;;3.57;;
9884;SDS011;4981;50.966;4.842;2023-11-19T02:58:40;21.67;;;4.00;;
9884;SDS011;4981;50.966;4.842;2023-11-19T03:01:11;21.03;;;3.60;;
9884;SDS011;4981;50.966;4.842;2023-11-19T03:03:48;21.53;;;4.37;;
9884;SDS011;4981;50.966;4.842;2023-11-19T03:06:19;19.53;;;3.70;;
9884;SDS011;4981;50.966;4.842;2023-11-19T03:08:48;26.03;;;4.23;;
9884;SDS011;4981;50.966;4.842;2023-11-19T03:11:15;22.27;;;3.53;;
9884;SDS011;4981;50.966;4.842;2023-11-19T03:13:42;21.40;;;4.00;;
9884;SDS011;4981;50.966;4.842;2023-11-19T03:16:11;18.83;;;4.03;;
9884;SDS011;4981;50.966;4.842;2023-11-19T03:18:37;20.93;;;4.27;;
9884;SDS011;4981;50.966;4.842;2023-11-19T03:21:05;16.57;;;3.83;;
9884;SDS011;4981;50.966;4.842;2023-11-19T03:23:33;33.70;;;4.53;;
9884;SDS011;4981;50.966;4.842;2023-11-19T03:26:00;20.23;;;4.30;;
9884;SDS011;4981;50.966;4.842;2023-11-19T03:28:30;24.40;;;3.90;;
9884;SDS011;4981;50.966;4.842;2023-11-19T03:30:57;23.70;;;4.23;;
9884;SDS011;4981;50.966;4.842;2023-11-19T03:33:25;19.17;;;4.00;;
9884;SDS011;4981;50.966;4.842;2023-11-19T03:35:53;23.47;;;3.80;;
9884;SDS011;4981;50.966;4.842;2023-11-19T03:38:21;22.23;;;3.70;;
9884;SDS011;4981;50.966;4.842;2023-11-19T03:40:48;20.73;;;4.87;;
9884;SDS011;4981;50.966;4.842;2023-11-19T03:43:15;15.53;;;4.07;;
9884;SDS011;4981;50.966;4.842;2023-11-19T03:45:44;17.03;;;3.70;;
9884;SDS011;4981;50.966;4.842;2023-11-19T03:48:11;22.10;;;3.53;;
9884;SDS011;4981;50.966;4.842;2023-11-19T03:50:42;16.17;;;3.33;;
9884;SDS011;4981;50.966;4.842;2023-11-19T03:53:09;16.77;;;3.63;;
9884;SDS011;4981;50.966;4.842;2023-11-19T03:55:37;24.10;;;4.53;;
9884;SDS011;4981;50.966;4.842;2023-11-19T03:58:04;23.10;;;4.10;;
9884;SDS011;4981;50.966;4.842;2023-11-19T04:00:30;22.67;;;3.80;;
9884;SDS011;4981;50.966;4.842;2023-11-19T04:02:58;21.33;;;3.87;;
9884;SDS011;4981;50.966;4.842;2023-11-19T04:05:25;16.93;;;3.50;;
9884;SDS011;4981;50.966;4.842;2023-11-19T04:07:54;27.07;;;3.90;;
9884;SDS011;4981;50.966;4.842;2023-11-19T04:10:20;19.67;;;3.83;;
9884;SDS011;4981;50.966;4.842;2023-11-19T04:12:48;18.00;;;3.67;;
9884;SDS011;4981;50.966;4.842;2023-11-19T04:15:14;28.20;;;4.43;;
9884;SDS011;4981;50.966;4.842;2023-11-19T04:17:41;26.10;;;4.20;;
9884;SDS011;4981;50.966;4.842;2023-11-19T04:20:09;21.77;;;4.07;;
9884;SDS011;4981;50.966;4.842;2023-11-19T04:22:38;20.23;;;4.20;;
9884;SDS011;4981;50.966;4.842;2023-11-19T04:25:07;22.47;;;4.13;;
9884;SDS011;4981;50.966;4.842;2023-11-19T04:27:34;26.87;;;4.70;;
9884;SDS011;4981;50.966;4.842;2023-11-19T04:30:01;24.57;;;4.03;;
9884;SDS011;4981;50.966;4.842;2023-11-19T04:32:30;18.90;;;3.50;;
9884;SDS011;4981;50.966;4.842;2023-11-19T04:34:57;24.17;;;4.70;;
9884;SDS011;4981;50.966;4.842;2023-11-19T04:37:24;22.17;;;4.27;;
9884;SDS011;4981;50.966;4.842;2023-11-19T04:39:51;23.60;;;3.93;;
9884;SDS011;4981;50.966;4.842;2023-11-19T04:42:19;26.27;;;4.73;;
9884;SDS011;4981;50.966;4.842;2023-11-19T04:44:49;19.53;;;4.23;;
9884;SDS011;4981;50.966;4.842;2023-11-19T04:47:16;18.13;;;3.80;;
9884;SDS011;4981;50.966;4.842;2023-11-19T04:49:43;27.50;;;4.90;;
9884;SDS011;4981;50.966;4.842;2023-11-19T04:52:10;26.83;;;4.33;;
9884;SDS011;4981;50.966;4.842;2023-11-19T04:54:41;19.67;;;3.40;;
9884;SDS011;4981;50.966;4.842;2023-11-19T04:57:08;22.77;;;4.87;;
9884;SDS011;4981;50.966;4.842;2023-11-19T04:59:37;24.93;;;5.00;;
9884;SDS011;4981;50.966;4.842;2023-11-19T05:02:05;25.67;;;5.47;;
9884;SDS011;4981;50.966;4.842;2023-11-19T05:04:31;24.67;;;4.73;;
9884;SDS011;4981;50.966;4.842;2023-11-19T05:06:58;24.30;;;5.07;;
9884;SDS011;4981;50.966;4.842;2023-11-19T05:09:25;22.80;;;4.10;;
9884;SDS011;4981;50.966;4.842;2023-11-19T05:11:52;19.33;;;3.73;;
9884;SDS011;4981;50.966;4.842;2023-11-19T05:14:19;24.40;;;4.67;;
9884;SDS011;4981;50.966;4.842;2023-11-19T05:16:48;24.50;;;5.13;;
9884;SDS011;4981;50.966;4.842;2023-11-19T05:19:15;29.47;;;4.43;;
9884;SDS011;4981;50.966;4.842;2023-11-19T05:21:42;21.60;;;4.10;;
9884;SDS011;4981;50.966;4.842;2023-11-19T05:24:09;27.00;;;5.47;;
9884;SDS011;4981;50.966;4.842;2023-11-19T05:26:38;27.03;;;5.27;;
9884;SDS011;4981;50.966;4.842;2023-11-19T05:29:05;30.27;;;5.00;;
9884;SDS011;4981;50.966;4.842;2023-11-19T05:31:32;28.37;;;5.07;;
9884;SDS011;4981;50.966;4.842;2023-11-19T05:34:00;23.50;;;5.00;;
9884;SDS011;4981;50.966;4.842;2023-11-19T05:36:27;24.93;;;5.83;;
9884;SDS011;4981;50.966;4.842;2023-11-19T05:38:54;28.93;;;5.40;;
9884;SDS011;4981;50.966;4.842;2023-11-19T05:41:21;30.63;;;5.50;;
9884;SDS011;4981;50.966;4.842;2023-11-19T05:43:49;26.57;;;5.17;;
9884;SDS011;4981;50.966;4.842;2023-11-19T05:46:18;27.93;;;5.80;;
9884;SDS011;4981;50.966;4.842;2023-11-19T05:48:45;30.07;;;4.93;;
9884;SDS011;4981;50.966;4.842;2023-11-19T05:51:14;30.20;;;5.73;;
9884;SDS011;4981;50.966;4.842;2023-11-19T05:53:41;24.50;;;4.40;;
9884;SDS011;4981;50.966;4.842;2023-11-19T05:56:08;29.73;;;4.73;;
9884;SDS011;4981;50.966;4.842;2023-11-19T05:58:35;26.90;;;4.90;;
9884;SDS011;4981;50.966;4.842;2023-11-19T06:01:04;25.50;;;5.27;;
9884;SDS011;4981;50.966;4.842;2023-11-19T06:03:32;29.87;;;4.50;;
9884;SDS011;4981;50.966;4.842;2023-11-19T06:05:59;27.43;;;4.30;;
9884;SDS011;4981;50.966;4.842;2023-11-19T06:08:28;24.27;;;4.70;;
9884;SDS011;4981;50.966;4.842;2023-11-19T06:10:55;27.57;;;5.00;;
9884;SDS011;4981;50.966;4.842;2023-11-19T06:13:22;27.33;;;5.07;;
9884;SDS011;4981;50.966;4.842;2023-11-19T06:15:50;23.03;;;4.67;;
9884;SDS011;4981;50.966;4.842;2023-11-19T06:18:17;23.97;;;5.40;;
9884;SDS011;4981;50.966;4.842;2023-11-19T06:20:45;27.60;;;5.43;;
9884;SDS011;4981;50.966;4.842;2023-11-19T06:23:12;25.13;;;5.33;;
9884;SDS011;4981;50.966;4.842;2023-11-19T06:25:41;28.67;;;5.60;;
9884;SDS011;4981;50.966;4.842;2023-11-19T06:28:08;25.80;;;5.00;;
9884;SDS011;4981;50.966;4.842;2023-11-19T06:30:34;25.77;;;5.03;;
9884;SDS011;4981;50.966;4.842;2023-11-19T06:33:01;26.97;;;5.30;;
9884;SDS011;4981;50.966;4.842;2023-11-19T06:35:29;27.20;;;5.07;;
9884;SDS011;4981;50.966;4.842;2023-11-19T06:38:01;25.20;;;4.97;;
9884;SDS011;4981;50.966;4.842;2023-11-19T06:40:29;28.90;;;5.07;;
9884;SDS011;4981;50.966;4.842;2023-11-19T06:42:57;27.23;;;5.60;;
9884;SDS011;4981;50.966;4.842;2023-11-19T06:45:24;29.77;;;6.07;;
9884;SDS011;4981;50.966;4.842;2023-11-19T06:47:51;30.63;;;5.77;;
9884;SDS011;4981;50.966;4.842;2023-11-19T06:50:18;30.40;;;5.83;;
9884;SDS011;4981;50.966;4.842;2023-11-19T06:52:45;29.37;;;5.83;;
9884;SDS011;4981;50.966;4.842;2023-11-19T06:55:12;30.60;;;5.77;;
9884;SDS011;4981;50.966;4.842;2023-11-19T06:57:39;33.00;;;5.63;;
9884;SDS011;4981;50.966;4.842;2023-11-19T07:00:08;28.23;;;5.40;;
9884;SDS011;4981;50.966;4.842;2023-11-19T07:02:37;25.40;;;5.43;;
9884;SDS011;4981;50.966;4.842;2023-11-19T07:05:04;28.63;;;5.53;;
9884;SDS011;4981;50.966;4.842;2023-11-19T07:07:33;24.03;;;4.77;;
9884;SDS011;4981;50.966;4.842;2023-11-19T07:10:00;25.57;;;4.73;;
9884;SDS011;4981;50.966;4.842;2023-11-19T07:12:29;33.93;;;5.03;;
9884;SDS011;4981;50.966;4.842;2023-11-19T07:14:56;25.03;;;4.33;;
9884;SDS011;4981;50.966;4.842;2023-11-19T07:17:24;29.60;;;5.07;;
9884;SDS011;4981;50.966;4.842;2023-11-19T07:19:52;23.43;;;4.50;;
9884;SDS011;4981;50.966;4.842;2023-11-19T07:22:19;27.53;;;4.87;;
9884;SDS011;4981;50.966;4.842;2023-11-19T07:24:46;27.60;;;4.40;;
9884;SDS011;4981;50.966;4.842;2023-11-19T07:27:13;27.63;;;5.00;;
9884;SDS011;4981;50.966;4.842;2023-11-19T07:29:40;38.73;;;5.03;;
9884;SDS011;4981;50.966;4.842;2023-11-19T07:32:09;27.53;;;5.13;;
9884;SDS011;4981;50.966;4.842;2023-11-19T07:34:39;26.27;;;5.57;;
9884;SDS011;4981;50.966;4.842;2023-11-19T07:37:06;33.00;;;5.47;;
9884;SDS011;4981;50.966;4.842;2023-11-19T07:39:33;21.23;;;4.63;;
9884;SDS011;4981;50.966;4.842;2023-11-19T07:42:03;22.53;;;4.93;;
9884;SDS011;4981;50.966;4.842;2023-11-19T07:44:30;21.53;;;4.30;;
9884;SDS011;4981;50.966;4.842;2023-11-19T07:46:57;25.53;;;5.90;;
9884;SDS011;4981;50.966;4.842;2023-11-19T07:49:24;23.90;;;5.17;;
9884;SDS011;4981;50.966;4.842;2023-11-19T07:51:53;34.93;;;5.63;;
9884;SDS011;4981;50.966;4.842;2023-11-19T07:54:19;32.63;;;5.23;;
9884;SDS011;4981;50.966;4.842;2023-11-19T07:56:47;30.20;;;5.70;;
9884;SDS011;4981;50.966;4.842;2023-11-19T07:59:14;29.33;;;5.43;;
9884;SDS011;4981;50.966;4.842;2023-11-19T08:01:41;33.37;;;5.93;;
9884;SDS011;4981;50.966;4.842;2023-11-19T08:04:08;26.03;;;5.27;;
9884;SDS011;4981;50.966;4.842;2023-11-19T08:06:35;33.60;;;5.57;;
9884;SDS011;4981;50.966;4.842;2023-11-19T08:09:04;30.80;;;4.97;;
9884;SDS011;4981;50.966;4.842;2023-11-19T08:11:31;28.90;;;4.93;;
9884;SDS011;4981;50.966;4.842;2023-11-19T08:13:58;27.00;;;5.13;;
9884;SDS011;4981;50.966;4.842;2023-11-19T08:16:25;29.63;;;5.50;;
9884;SDS011;4981;50.966;4.842;2023-11-19T08:18:52;33.47;;;6.30;;
9884;SDS011;4981;50.966;4.842;2023-11-19T08:21:19;28.40;;;5.67;;
9884;SDS011;4981;50.966;4.842;2023-11-19T08:23:47;29.23;;;5.73;;
9884;SDS011;4981;50.966;4.842;2023-11-19T08:26:16;26.97;;;5.37;;
9884;SDS011;4981;50.966;4.842;2023-11-19T08:28:43;30.63;;;5.20;;
9884;SDS011;4981;50.966;4.842;2023-11-19T08:31:10;24.73;;;5.20;;
9884;SDS011;4981;50.966;4.842;2023-11-19T08:33:36;30.87;;;5.53;;
9884;SDS011;4981;50.966;4.842;2023-11-19T08:36:04;24.47;;;5.70;;
9884;SDS011;4981;50.966;4.842;2023-11-19T08:38:31;25.80;;;5.33;;
9884;SDS011;4981;50.966;4.842;2023-11-19T08:40:58;24.43;;;4.87;;
9884;SDS011;4981;50.966;4.842;2023-11-19T08:43:27;27.97;;;5.37;;
9884;SDS011;4981;50.966;4.842;2023-11-19T08:45:54;28.03;;;5.27;;
9884;SDS011;4981;50.966;4.842;2023-11-19T08:48:21;24.23;;;4.30;;
9884;SDS011;4981;50.966;4.842;2023-11-19T08:50:48;29.93;;;5.57;;
9884;SDS011;4981;50.966;4.842;2023-11-19T08:53:15;28.77;;;5.80;;
9884;SDS011;4981;50.966;4.842;2023-11-19T08:55:42;27.23;;;4.83;;
9884;SDS011;4981;50.966;4.842;2023-11-19T08:58:09;22.20;;;4.37;;
9884;SDS011;4981;50.966;4.842;2023-11-19T09:00:38;20.80;;;4.80;;
9884;SDS011;4981;50.966;4.842;2023-11-19T09:03:05;22.60;;;4.67;;
9884;SDS011;4981;50.966;4.842;2023-11-19T09:05:34;26.70;;;4.97;;
9884;SDS011;4981;50.966;4.842;2023-11-19T09:08:02;23.63;;;4.97;;
9884;SDS011;4981;50.966;4.842;2023-11-19T09:10:29;30.90;;;5.27;;
9884;SDS011;4981;50.966;4.842;2023-11-19T09:12:59;33.33;;;6.03;;
9884;SDS011;4981;50.966;4.842;2023-11-19T09:15:26;19.73;;;4.37;;
9884;SDS011;4981;50.966;4.842;2023-11-19T09:17:54;23.93;;;4.97;;
9884;SDS011;4981;50.966;4.842;2023-11-19T09:20:21;25.27;;;4.47;;
9884;SDS011;4981;50.966;4.842;2023-11-19T09:22:48;26.03;;;5.17;;
9884;SDS011;4981;50.966;4.842;2023-11-19T09:25:16;20.40;;;4.40;;
9884;SDS011;4981;50.966;4.842;2023-11-19T09:27:43;18.93;;;4.30;;
9884;SDS011;4981;50.966;4.842;2023-11-19T09:30:10;22.43;;;5.00;;
9884;SDS011;4981;50.966;4.842;2023-11-19T09:32:38;28.13;;;4.97;;
9884;SDS011;4981;50.966;4.842;2023-11-19T09:35:07;26.70;;;4.67;;
9884;SDS011;4981;50.966;4.842;2023-11-19T09:37:38;25.17;;;4.73;;
9884;SDS011;4981;50.966;4.842;2023-11-19T09:40:05;26.03;;;4.77;;
9884;SDS011;4981;50.966;4.842;2023-11-19T09:42:36;21.67;;;4.17;;
9884;SDS011;4981;50.966;4.842;2023-11-19T09:45:09;24.13;;;5.30;;
9884;SDS011;4981;50.966;4.842;2023-11-19T09:47:40;22.20;;;4.67;;
9884;SDS011;4981;50.966;4.842;2023-11-19T09:50:12;24.57;;;4.57;;
9884;SDS011;4981;50.966;4.842;2023-11-19T09:52:42;25.63;;;5.30;;
9884;SDS011;4981;50.966;4.842;2023-11-19T09:55:10;25.53;;;5.03;;
9884;SDS011;4981;50.966;4.842;2023-11-19T09:57:37;21.27;;;4.80;;
9884;SDS011;4981;50.966;4.842;2023-11-19T10:00:06;18.00;;;4.53;;
9884;SDS011;4981;50.966;4.842;2023-11-19T10:02:35;26.43;;;4.53;;
9884;SDS011;4981;50.966;4.842;2023-11-19T10:05:04;21.77;;;4.20;;
9884;SDS011;4981;50.966;4.842;2023-11-19T10:07:34;19.57;;;4.43;;
9884;SDS011;4981;50.966;4.842;2023-11-19T10:10:01;21.07;;;4.63;;
9884;SDS011;4981;50.966;4.842;2023-11-19T10:12:29;19.40;;;4.00;;
9884;SDS011;4981;50.966;4.842;2023-11-19T10:14:57;24.23;;;4.43;;
9884;SDS011;4981;50.966;4.842;2023-11-19T10:17:27;14.97;;;3.53;;
9884;SDS011;4981;50.966;4.842;2023-11-19T10:19:54;18.33;;;4.50;;
9884;SDS011;4981;50.966;4.842;2023-11-19T10:22:22;21.30;;;4.10;;
9884;SDS011;4981;50.966;4.842;2023-11-19T10:24:50;21.53;;;4.13;;
9884;SDS011;4981;50.966;4.842;2023-11-19T10:27:17;21.30;;;3.83;;
9884;SDS011;4981;50.966;4.842;2023-11-19T10:29:45;21.27;;;4.17;;
9884;SDS011;4981;50.966;4.842;2023-11-19T10:32:12;20.17;;;4.57;;
9884;SDS011;4981;50.966;4.842;2023-11-19T10:34:39;24.17;;;4.23;;
9884;SDS011;4981;50.966;4.842;2023-11-19T10:37:08;27.00;;;4.87;;
9884;SDS011;4981;50.966;4.842;2023-11-19T10:42:21;21.83;;;4.73;;
9884;SDS011;4981;50.966;4.842;2023-11-19T10:44:48;21.90;;;4.30;;
9884;SDS011;4981;50.966;4.842;2023-11-19T10:47:15;20.60;;;5.27;;
9884;SDS011;4981;50.966;4.842;2023-11-19T10:49:45;20.03;;;4.70;;
9884;SDS011;4981;50.966;4.842;2023-11-19T10:52:13;18.67;;;4.50;;
9884;SDS011;4981;50.966;4.842;2023-11-19T10:54:44;22.73;;;5.00;;
9884;SDS011;4981;50.966;4.842;2023-11-19T10:57:19;19.70;;;5.00;;
9884;SDS011;4981;50.966;4.842;2023-11-19T10:59:48;20.33;;;4.70;;
9884;SDS011;4981;50.966;4.842;2023-11-19T11:02:18;24.07;;;4.73;;
9884;SDS011;4981;50.966;4.842;2023-11-19T11:04:48;25.93;;;4.37;;
9884;SDS011;4981;50.966;4.842;2023-11-19T11:07:17;22.83;;;4.37;;
9884;SDS011;4981;50.966;4.842;2023-11-19T11:09:50;24.13;;;5.43;;
9884;SDS011;4981;50.966;4.842;2023-11-19T11:12:19;25.10;;;4.63;;
9884;SDS011;4981;50.966;4.842;2023-11-19T11:14:50;28.10;;;4.53;;
9884;SDS011;4981;50.966;4.842;2023-11-19T11:17:19;24.30;;;4.93;;
9884;SDS011;4981;50.966;4.842;2023-11-19T11:19:50;19.00;;;3.90;;
9884;SDS011;4981;50.966;4.842;2023-11-19T11:22:19;15.63;;;3.67;;
9884;SDS011;4981;50.966;4.842;2023-11-19T11:24:53;21.47;;;4.33;;
9884;SDS011;4981;50.966;4.842;2023-11-19T11:27:43;17.30;;;3.50;;
9884;SDS011;4981;50.966;4.842;2023-11-19T11:30:20;24.67;;;4.10;;
9884;SDS011;4981;50.966;4.842;2023-11-19T11:32:58;14.73;;;3.57;;
9884;SDS011;4981;50.966;4.842;2023-11-19T11:35:41;19.13;;;4.40;;
9884;SDS011;4981;50.966;4.842;2023-11-19T11:38:16;23.50;;;4.73;;
9884;SDS011;4981;50.966;4.842;2023-11-19T11:43:46;21.57;;;4.93;;
9884;SDS011;4981;50.966;4.842;2023-11-19T11:49:23;21.53;;;4.27;;
9884;SDS011;4981;50.966;4.842;2023-11-19T11:52:01;22.27;;;4.23;;
9884;SDS011;4981;50.966;4.842;2023-11-19T11:54:32;26.77;;;4.93;;
9884;SDS011;4981;50.966;4.842;2023-11-19T11:57:09;21.47;;;4.47;;
9884;SDS011;4981;50.966;4.842;2023-11-19T11:59:48;20.73;;;4.70;;
9884;SDS011;4981;50.966;4.842;2023-11-19T12:02:16;15.40;;;4.20;;
9884;SDS011;4981;50.966;4.842;2023-11-19T12:04:49;21.77;;;4.33;;
9884;SDS011;4981;50.966;4.842;2023-11-19T12:07:17;17.20;;;3.53;;
9884;SDS011;4981;50.966;4.842;2023-11-19T12:09:51;17.57;;;3.87;;
9884;SDS011;4981;50.966;4.842;2023-11-19T12:12:25;24.40;;;6.00;;
9884;SDS011;4981;50.966;4.842;2023-11-19T12:15:01;14.87;;;3.30;;
9884;SDS011;4981;50.966;4.842;2023-11-19T12:17:37;21.47;;;4.17;;
9884;SDS011;4981;50.966;4.842;2023-11-19T12:20:15;21.43;;;4.53;;
9884;SDS011;4981;50.966;4.842;2023-11-19T12:22:43;21.47;;;4.70;;
9884;SDS011;4981;50.966;4.842;2023-11-19T12:25:14;15.33;;;3.73;;
9884;SDS011;4981;50.966;4.842;2023-11-19T12:27:43;22.50;;;6.27;;
9884;SDS011;4981;50.966;4.842;2023-11-19T12:30:12;18.70;;;5.47;;
9884;SDS011;4981;50.966;4.842;2023-11-19T12:32:44;20.23;;;5.83;;
9884;SDS011;4981;50.966;4.842;2023-11-19T12:35:14;20.20;;;4.30;;
9884;SDS011;4981;50.966;4.842;2023-11-19T12:37:41;18.90;;;3.90;;
9884;SDS011;4981;50.966;4.842;2023-11-19T12:40:13;23.23;;;4.63;;
9884;SDS011;4981;50.966;4.842;2023-11-19T12:42:42;27.17;;;4.47;;
9884;SDS011;4981;50.966;4.842;2023-11-19T12:45:09;20.40;;;4.20;;
9884;SDS011;4981;50.966;4.842;2023-11-19T12:47:38;14.37;;;3.70;;
9884;SDS011;4981;50.966;4.842;2023-11-19T12:50:06;11.60;;;3.20;;
9884;SDS011;4981;50.966;4.842;2023-11-19T12:52:34;12.70;;;3.37;;
9884;SDS011;4981;50.966;4.842;2023-11-19T12:55:02;15.77;;;3.40;;
9884;SDS011;4981;50.966;4.842;2023-11-19T12:57:36;15.17;;;3.27;;
9884;SDS011;4981;50.966;4.842;2023-11-19T13:00:05;19.37;;;4.30;;
9884;SDS011;4981;50.966;4.842;2023-11-19T13:02:46;16.50;;;4.50;;
9884;SDS011;4981;50.966;4.842;2023-11-19T13:05:23;16.10;;;3.50;;
9884;SDS011;4981;50.966;4.842;2023-11-19T13:08:02;21.30;;;4.17;;
9884;SDS011;4981;50.966;4.842;2023-11-19T13:10:30;12.73;;;3.67;;
9884;SDS011;4981;50.966;4.842;2023-11-19T13:13:02;19.87;;;4.40;;
9884;SDS011;4981;50.966;4.842;2023-11-19T13:15:30;20.87;;;5.47;;
9884;SDS011;4981;50.966;4.842;2023-11-19T13:17:59;21.13;;;4.87;;
9884;SDS011;4981;50.966;4.842;2023-11-19T13:20:26;23.47;;;6.03;;
9884;SDS011;4981;50.966;4.842;2023-11-19T13:22:54;19.23;;;4.33;;
9884;SDS011;4981;50.966;4.842;2023-11-19T13:25:21;14.80;;;3.83;;
9884;SDS011;4981;50.966;4.842;2023-11-19T13:27:48;20.23;;;3.93;;
9884;SDS011;4981;50.966;4.842;2023-11-19T13:30:16;17.83;;;3.97;;
9884;SDS011;4981;50.966;4.842;2023-11-19T13:32:43;20.77;;;4.83;;
9884;SDS011;4981;50.966;4.842;2023-11-19T13:35:12;21.67;;;4.57;;
9884;SDS011;4981;50.966;4.842;2023-11-19T13:37:39;20.90;;;5.50;;
9884;SDS011;4981;50.966;4.842;2023-11-19T13:40:07;21.37;;;4.10;;
9884;SDS011;4981;50.966;4.842;2023-11-19T13:42:35;26.90;;;4.10;;
9884;SDS011;4981;50.966;4.842;2023-11-19T13:45:06;20.47;;;4.47;;
9884;SDS011;4981;50.966;4.842;2023-11-19T13:47:36;25.43;;;4.93;;
9884;SDS011;4981;50.966;4.842;2023-11-19T13:50:06;20.23;;;3.87;;
9884;SDS011;4981;50.966;4.842;2023-11-19T13:52:35;21.00;;;4.40;;
9884;SDS011;4981;50.966;4.842;2023-11-19T13:55:05;17.03;;;3.80;;
9884;SDS011;4981;50.966;4.842;2023-11-19T13:57:33;15.57;;;3.40;;
9884;SDS011;4981;50.966;4.842;2023-11-19T14:00:00;21.10;;;3.83;;
9884;SDS011;4981;50.966;4.842;2023-11-19T14:02:30;15.50;;;3.67;;
9884;SDS011;4981;50.966;4.842;2023-11-19T14:04:57;19.83;;;4.07;;
9884;SDS011;4981;50.966;4.842;2023-11-19T14:07:25;15.40;;;3.20;;
9884;SDS011;4981;50.966;4.842;2023-11-19T14:09:53;16.47;;;3.77;;
9884;SDS011;4981;50.966;4.842;2023-11-19T14:12:20;15.67;;;3.53;;
9884;SDS011;4981;50.966;4.842;2023-11-19T14:14:47;18.57;;;4.27;;
9884;SDS011;4981;50.966;4.842;2023-11-19T14:17:14;18.47;;;4.40;;
9884;SDS011;4981;50.966;4.842;2023-11-19T14:19:41;16.23;;;3.60;;
9884;SDS011;4981;50.966;4.842;2023-11-19T14:22:09;17.80;;;3.80;;
9884;SDS011;4981;50.966;4.842;2023-11-19T14:24:36;21.80;;;4.80;;
9884;SDS011;4981;50.966;4.842;2023-11-19T14:27:06;19.00;;;4.13;;
9884;SDS011;4981;50.966;4.842;2023-11-19T14:29:33;19.30;;;4.27;;
9884;SDS011;4981;50.966;4.842;2023-11-19T14:32:00;16.50;;;3.83;;
9884;SDS011;4981;50.966;4.842;2023-11-19T14:34:28;16.50;;;4.27;;
9884;SDS011;4981;50.966;4.842;2023-11-19T14:36:55;20.83;;;5.03;;
9884;SDS011;4981;50.966;4.842;2023-11-19T14:39:22;23.93;;;4.30;;
9884;SDS011;4981;50.966;4.842;2023-11-19T14:41:49;22.80;;;4.40;;
9884;SDS011;4981;50.966;4.842;2023-11-19T14:44:19;21.67;;;5.33;;
9884;SDS011;4981;50.966;4.842;2023-11-19T14:46:46;25.53;;;6.13;;
9884;SDS011;4981;50.966;4.842;2023-11-19T14:49:13;23.17;;;4.83;;
9884;SDS011;4981;50.966;4.842;2023-11-19T14:51:43;21.07;;;5.07;;
9884;SDS011;4981;50.966;4.842;2023-11-19T14:54:10;26.13;;;5.50;;
9884;SDS011;4981;50.966;4.842;2023-11-19T14:56:39;23.87;;;5.37;;
9884;SDS011;4981;50.966;4.842;2023-11-19T14:59:06;19.47;;;4.93;;
9884;SDS011;4981;50.966;4.842;2023-11-19T15:01:35;24.30;;;4.87;;
9884;SDS011;4981;50.966;4.842;2023-11-19T15:04:02;27.40;;;5.60;;
9884;SDS011;4981;50.966;4.842;2023-11-19T15:06:29;22.83;;;4.80;;
9884;SDS011;4981;50.966;4.842;2023-11-19T15:08:57;17.30;;;4.43;;
9884;SDS011;4981;50.966;4.842;2023-11-19T15:11:24;24.30;;;5.57;;
9884;SDS011;4981;50.966;4.842;2023-11-19T15:13:53;24.73;;;5.40;;
9884;SDS011;4981;50.966;4.842;2023-11-19T15:16:20;27.13;;;5.00;;
9884;SDS011;4981;50.966;4.842;2023-11-19T15:18:57;22.23;;;4.73;;